Boise Air Terminal,Gowen field Boise US
ICAO: KBOI
IATA: BOI
Category: Large
Scheduled Services: Yes

Elevation: 2871 ft
TransAlt. 18000 ft.

Airport Communications:
APP/DEP:119.6
ATIS:123.9
CLNC DEL:125.9
SALT LAKE CITY CNTR:128.05
GND:121.7
ANG OPS:29.87
ARNG OPS:41.5
RDO:122.2
TWR:118.1
UNICOM:122.95

KBOI Zoom In..

If you have problems with the map follow the link
https://www.worldairports.se/pages/airport.php?
ICAO=KBOI

Runways:

(A) RW 10L length 10000 ft width 150 ft
---- / hdg 100

(B) RW 10R length 9763 ft width 150 ft
ILS 111.10 / hdg 100

(C) RW 28L length 9763 ft width 150 ft
---- / hdg 280

(D) RW 28R length 10000 ft width 150 ft
ILS 110.15 / hdg 280

Location; KBOI
Day. 23 / Time. 17.53 Zulu
* Altimeter: 30.01
* Temperature: 16° c. 60.8°f.
* Wind from: 140° Speed 11 kn.
Dewpoint: 09° c.
Visibility: 10 Statute Miles.
Clouds: Overcast 8500 ft.

KBOI 231753Z 14011KT 10SM OVC085 16/09 A3001 RMK AO2 SLP152 T01610094 10167 20100 51006 $


Wind From 140°
Speed 11 kn.

 
 
jpsmedia.com for Web Design worldairports.se 2018   terms of use